• Join FlightAware (Why Join?)
  • Login
  • US Flag 
12:56AM EDT


 

Airport Tracker/Info


-or-


 

Live Flight TrackerFlight Track Log ✈ TAM3053 ✈ 21-May-2013 ✈ SBSP / CGH - SBUL / UDI

Flight Track Log - Related Links

Times and Time Zones

All times are in EDT time to prevent confusion due to time zone crossing. See the TAM3053 flight status page for this flight to view local times or setup timezone preferences in your user account.

Time Position Orientation Groundspeed Altitude Reporting Facility
EDT Latitude Longitude Course Direction KTS MPH feet Rate Location/Type
09:49AM -22.4676 -47.0491 343° North  Level Estimated
09:50AM -22.3709 -47.0816 343° North  Level Estimated
09:51AM -22.2743 -47.1141 343° North  Level Estimated
09:52AM -22.1776 -47.1465 343° North  Level Estimated
09:53AM -22.0809 -47.1789 343° North  Level Estimated
09:54AM -21.9843 -47.2112 343° North  Level Estimated
09:55AM -21.8876 -47.2435 343° North  Level Estimated
09:56AM -21.7909 -47.2757 343° North  Level Estimated
09:57AM -21.6943 -47.3079 343° North  Level Estimated
09:58AM -21.5976 -47.3401 343° North  Level Estimated
09:59AM -21.5009 -47.3722 343° North  Level Estimated
10:00AM -21.4042 -47.4043 343° North  Level Estimated
10:01AM -21.3075 -47.4363 343° North  Level Estimated
10:02AM -21.2108 -47.4683 343° North  Level Estimated
10:03AM -21.1140 -47.5002 343° North  Level Estimated
10:04AM -21.0173 -47.5321 343° North  Level Estimated
10:05AM -20.9206 -47.5640 343° North  Level Estimated
10:06AM -20.8238 -47.5958 343° North  Level Estimated
10:07AM -20.7271 -47.6276 343° North  Level Estimated
10:08AM -20.6303 -47.6593 343° North  Level Estimated
10:09AM -20.5336 -47.6910 343° North  Level Estimated
10:10AM -20.4368 -47.7227 343° North  Level Estimated
10:11AM -20.3400 -47.7543 343° North  Level Estimated
10:12AM -20.2433 -47.7859 343° North  Level Estimated
10:13AM -20.1465 -47.8174 343° North  Level Estimated
10:14AM -20.0497 -47.8489 343° North  Level Estimated
10:15AM -19.9529 -47.8804 343° North  Level Estimated
10:16AM -19.8561 -47.9118 343° North  Level Estimated
10:17AM -19.7593 -47.9432 343° North  Level Estimated
10:18AM -19.6625 -47.9745 343° North  Level Estimated
10:19AM -19.5657 -48.0059 343° North  Level Estimated
10:20AM -19.4689 -48.0371 343° North  Level Estimated
10:21AM -19.3721 -48.0684 343° North  Level Estimated
10:22AM -19.2752 -48.0995 343° North  Level Estimated
10:23AM -19.1784 -48.1307 343° North  Level Estimated
10:24AM -19.0816 -48.1618 343° North  Level Estimated
10:25AM -18.9847 -48.1929 343° North  Level Estimated
10:26AM -18.8879 -48.2240 343° North  Level Estimated
10:27AM -18.8828 -48.2256 343° North  Level Estimated
10:28AM -18.8828 -48.2256 223° Southwest  Level Estimated
10:29AM -18.8828 -48.2256 223° Southwest  Level Estimated
10:30AM -18.8828 -48.2256 223° Southwest  Level Estimated
10:31AM -18.8828 -48.2256 223° Southwest  Level Estimated
10:32AM -18.8828 -48.2256 223° Southwest  Level Estimated
10:33AM -18.8828 -48.2256 223° Southwest  Level Estimated
10:34AM -18.8828 -48.2256 223° Southwest  Level Estimated
10:35AM -18.8828 -48.2256 223° Southwest  Level Estimated
10:36AM -18.8828 -48.2256 223° Southwest  Level Estimated
10:37AM -18.8828 -48.2256 223° Southwest  Level Estimated
10:38AM -18.8828 -48.2256 223° Southwest  Level Estimated
10:39AM -18.8828 -48.2256 223° Southwest  Level Estimated
10:40AM -18.8828 -48.2256 223° Southwest  Level Estimated
10:41AM -18.8828 -48.2256 223° Southwest  Level Estimated
10:42AM -18.8828 -48.2256 223° Southwest  Level Estimated